A- A+ FrançaisEnglishEspañol中国

le plus proche LFTW Nimes-Garons LFLL Lyon-Saint-Exupéry LFQQ Lille-Lesquin LFBM Mont-De-Marsan

manche à air

La météo aéronautique pour les pilotes, la préparation du vol avec les METAR (METeorological Aerodrome Report, message d'observation des conditions météorologiques pour l'aviation) et Les TAF (Terminal Aerodrome Forecast : message de prévision à court terme des conditions météorologiques pour l'aviation). Et les autres ressources comme les VAC (Visual Approch Chart) et les NOTAM (Notice To Airman) pour préprer les vols.

Aéroport Shoreham (Royaume-Uni) / OACI EGKA/ IATA ESH

L'altitude de l'aéroport Shoreham est de 2 m=7 ft. Il est situé à proximité de Brighton (Royaume-Uni). La météo générale à 5 jours est disponible pour Steyning situé à 6.1 km.

METAR de l'aéroport Shoreham - EGKA

EGKA 271550Z 35006KT 9000 FEW017 07/06 Q1031

Décodage du METAR de l'aéroport Shoreham (GB)

METAR émis par EGKA le vendredi 27 décembre 2019 à 15:50 heure TU. Attention ce METAR est obsolète car il a été émis il y a 5 heure et 45 minutes.

La visibilité est de 9 km=5.6 sm.

La température est de 7°C=45 °F et le point rosée est de 6°C=43 °F . Ce qui correspond à 93% d'humidité relative.

Le QNH est de 1031 hPa=30.45 inHg

Vent de 6 kt=11 km/h, orienté à 350°.

Nuages : Quelques nuages à 1700 ft=520 mètres.

TAF de l'aéroport Shoreham - EGKA

EGKA 271357Z 2715/2720 35006KT 9999 SCT025 PROB30 TEMPO 2715/2718 8000 BKN012 BECMG 2718/2720 4000 BR

EGKA 271357Z 2715/2720 35006KT 9999 nuages épars à 025 probabilité de 30% d'avoir temporairement 2715/2718 8000 couverture nuageuse fragmentée à 012 devenant 2718/2720 4000 brume

Aéroport à proximité de Shoreham

Météo générale à 5 jours à Steyning (6.1 km)EGHR Aéroport Chichester (33 km)EGTD Aéroport Dunsfold (35 km)EGKK Aéroport London Gatwick (36 km)EGKR Aéroport Redhill (43 km)EGLF Aéroport Farnborough (59 km)EGKB Aéroport Biggin Hill (60 km)

Vue aérienne de l'aéroport Shoreham

NOTAM de l'aéroport Shoreham

Les NOTAM sont fournis sans aucune garantie de leur actualité. Le pilote est le seul responsable de la vérification de sa validité avant de l'utiliser opérationnellement pour préparer un vol ou l'utiliser lors de sa navigation.

NOTAM Approach control service (à partir du vendredi 27 décembre 2019 à 10:00 jusqu'au vendredi 27 décembre 2019 à 20:00)

C6905/19 NOTAMN
Q) EGTT/QSPLT/IV/BO /AE/000/021/5050N00018W002
A) EGKA B) 1912271000 C) 1912272000
E) SHOREHAM ATC DOWNGRADED TO AN AIR-GROUND COMMUNICATION SERVICE
CREATED: 27 Dec 2019 08:32:00
SOURCE: EUECYIYN

NOTAM Air/ground facility (à partir du lundi 16 décembre 2019 à 15:08 jusqu'au vendredi 31 janvier 2020 à 20:00)

C6722/19 NOTAMN
Q) EGTT/QCAXX/IV/B /A /000/999/5050N00018W005
A) EGKA B) 1912161508 C) 2001312000
E) SHOREHAM ATC DOWNGRADED TO AN AIR-GROUND COMMUNICATION
SERVICE:
MON-FRI 0800-1000
SAT 0900-2000
SUN 0900-1900
CREATED: 16 Dec 2019 15:15:00
SOURCE: EUECYIYN

Sources des données